Time;durP1;ratioP1;P1;durP2;ratioP2;P2;SDS_P1;SDS_P2;PMS_P1;PMS_P2;Temp;Humidity;BMP_temperature;BMP_pressure;BME280_temperature;BME280_humidity;BME280_pressure;Samples;Min_cycle;Max_cycle;Signal;HPM_P1;HPM_P2
2023/05/13 00:02:09;;;;;;;4.70;4.13;;;;;;;11.00;76.58;96081.84;4966042;28;20211;-69
2023/05/13 00:04:35;;;;;;;5.60;5.10;;;;;;;10.99;75.56;96080.16;4967118;28;20527;-70
2023/05/13 00:07:00;;;;;;;4.40;4.00;;;;;;;10.91;76.33;96083.16;4966383;28;20193;-70
2023/05/13 00:09:26;;;;;;;4.80;4.40;;;;;;;11.05;75.69;96085.09;4966757;28;20533;-68
2023/05/13 00:11:52;;;;;;;5.60;4.47;;;;;;;10.86;76.43;96076.44;4968167;28;20563;-70
2023/05/13 00:14:18;;;;;;;5.80;4.80;;;;;;;10.83;76.38;96073.97;4969106;28;20409;-70
2023/05/13 00:16:43;;;;;;;4.40;4.00;;;;;;;10.89;75.71;96089.41;4970401;28;20594;-70
2023/05/13 00:19:09;;;;;;;4.60;4.13;;;;;;;10.92;75.94;96082.25;4968922;28;20173;-69
2023/05/13 00:21:34;;;;;;;4.10;3.70;;;;;;;10.88;75.74;96082.47;4968914;28;20175;-69
2023/05/13 00:24:00;;;;;;;4.03;3.60;;;;;;;10.94;75.46;96077.75;4969553;28;20173;-69
2023/05/13 00:26:26;;;;;;;4.33;3.93;;;;;;;10.91;74.86;96066.56;4969061;28;20166;-69
2023/05/13 00:28:51;;;;;;;4.33;3.80;;;;;;;10.81;75.35;96067.00;4969597;28;20183;-69
2023/05/13 00:31:17;;;;;;;5.13;3.90;;;;;;;10.83;75.41;96073.97;4969166;28;20177;-68
2023/05/13 00:33:42;;;;;;;3.40;3.10;;;;;;;10.90;75.10;96075.38;4969291;28;20216;-70
2023/05/13 00:36:09;;;;;;;4.60;3.83;;;;;;;10.91;74.48;96079.69;4966167;28;20257;-70
2023/05/13 00:38:35;;;;;;;6.03;4.00;;;;;;;10.63;75.53;96083.69;4967871;28;20177;-69
2023/05/13 00:41:01;;;;;;;4.07;3.70;;;;;;;10.69;75.44;96078.13;4972909;28;20444;-70
2023/05/13 00:43:27;;;;;;;4.23;3.70;;;;;;;10.68;75.19;96075.59;4971498;28;20192;-69
2023/05/13 00:45:52;;;;;;;4.33;3.77;;;;;;;10.46;76.06;96084.50;4972220;28;20414;-70
2023/05/13 00:48:18;;;;;;;4.23;3.77;;;;;;;10.63;75.17;96083.69;4973247;28;20964;-70
2023/05/13 00:50:43;;;;;;;3.40;3.10;;;;;;;10.52;75.96;96081.59;4972301;28;20280;-70
2023/05/13 00:53:11;;;;;;;4.37;3.47;;;;;;;10.53;75.90;96085.91;4972553;28;20189;-69
2023/05/13 00:55:40;;;;;;;5.40;4.20;;;;;;;10.58;75.93;96085.66;4972846;28;20695;-70
2023/05/13 00:58:06;;;;;;;10.80;5.10;;;;;;;10.55;76.35;96085.84;4972828;28;20452;-69
2023/05/13 01:00:34;;;;;;;5.47;3.70;;;;;;;10.40;76.53;96087.44;4972800;28;20463;-70
2023/05/13 01:03:09;;;;;;;3.93;3.63;;;;;;;10.42;76.79;96088.22;4972602;28;20185;-69
2023/05/13 01:05:56;;;;;;;4.90;3.57;;;;;;;10.55;76.49;96088.47;4953535;28;20460;-70
2023/05/13 01:08:30;;;;;;;4.60;4.20;;;;;;;10.40;77.23;96086.59;4956410;28;21125;-70
2023/05/13 01:11:02;;;;;;;4.93;4.43;;;;;;;10.46;77.09;96102.00;4956373;28;20822;-70
2023/05/13 01:13:32;;;;;;;5.20;4.70;;;;;;;10.56;76.60;96098.03;4956215;28;20437;-70
2023/05/13 01:16:15;;;;;;;4.30;3.83;;;;;;;10.65;76.57;96100.19;4956191;28;20942;-70
2023/05/13 01:18:44;;;;;;;4.47;4.17;;;;;;;10.72;76.05;96093.72;4956607;28;20500;-70
2023/05/13 01:21:11;;;;;;;4.50;4.10;;;;;;;10.50;76.53;96090.47;4956569;28;20479;-70
2023/05/13 01:23:36;;;;;;;4.10;3.43;;;;;;;10.57;76.81;96094.47;4956420;28;20440;-70
2023/05/13 01:26:02;;;;;;;4.27;3.70;;;;;;;10.52;76.83;96083.38;4956581;28;20417;-69
2023/05/13 01:28:28;;;;;;;4.90;3.90;;;;;;;10.38;77.28;96090.13;4957163;28;20170;-69
2023/05/13 01:30:55;;;;;;;3.93;3.43;;;;;;;10.44;77.05;96093.38;4957782;28;20178;-70
2023/05/13 01:33:22;;;;;;;3.97;3.67;;;;;;;10.46;76.54;96086.28;4964653;28;20275;-70
2023/05/13 01:35:48;;;;;;;4.33;3.93;;;;;;;10.58;76.63;96090.91;4967534;28;20461;-69
2023/05/13 01:38:14;;;;;;;4.00;3.70;;;;;;;10.60;76.41;96092.53;4966865;28;20424;-70
2023/05/13 01:40:41;;;;;;;4.20;3.80;;;;;;;10.61;76.53;96088.16;4964730;28;20508;-69
2023/05/13 01:43:06;;;;;;;4.57;3.17;;;;;;;10.63;75.88;96085.44;4960059;28;20440;-69
2023/05/13 01:45:32;;;;;;;3.90;3.50;;;;;;;10.56;76.43;96087.56;4958876;28;20441;-69
2023/05/13 01:47:58;;;;;;;3.87;3.47;;;;;;;10.36;77.03;96091.97;4973868;28;20181;-70
2023/05/13 01:50:25;;;;;;;4.60;4.13;;;;;;;10.50;76.39;96095.72;4974123;28;20726;-69
2023/05/13 01:52:50;;;;;;;4.20;3.60;;;;;;;10.53;76.07;96087.69;4972440;28;20433;-70
2023/05/13 01:55:16;;;;;;;4.07;3.70;;;;;;;10.56;76.14;96092.81;4972837;28;20476;-69
2023/05/13 01:57:41;;;;;;;5.60;3.40;;;;;;;10.52;76.16;96086.00;4971041;28;20192;-69
2023/05/13 02:00:07;;;;;;;3.70;3.30;;;;;;;10.48;75.69;96087.06;4972811;28;20182;-70
2023/05/13 02:02:32;;;;;;;6.10;3.70;;;;;;;10.35;76.29;96097.31;4972615;28;20274;-68
2023/05/13 02:04:58;;;;;;;4.30;3.90;;;;;;;10.27;76.93;96092.38;4972516;28;20193;-70
2023/05/13 02:07:23;;;;;;;3.70;3.40;;;;;;;10.54;76.18;96095.47;5002241;28;20240;-70
2023/05/13 02:09:49;;;;;;;4.30;3.90;;;;;;;10.61;75.61;96101.28;4971963;28;20180;-70
2023/05/13 02:12:15;;;;;;;3.60;3.30;;;;;;;10.62;75.16;96100.34;4976533;28;20848;-70
2023/05/13 02:14:40;;;;;;;4.40;4.00;;;;;;;10.60;75.79;96100.41;4980194;28;20177;-70
2023/05/13 02:17:06;;;;;;;4.27;3.00;;;;;;;10.41;75.88;96101.41;4981173;28;20431;-69
2023/05/13 02:19:31;;;;;;;3.53;2.73;;;;;;;10.41;75.75;96096.16;4977255;28;20172;-69
2023/05/13 02:21:57;;;;;;;3.40;3.10;;;;;;;10.50;75.24;96108.81;4979220;28;20189;-70
2023/05/13 02:24:22;;;;;;;3.50;3.07;;;;;;;10.45;75.86;96102.97;4983477;28;20184;-69
2023/05/13 02:26:47;;;;;;;4.87;2.80;;;;;;;10.38;75.82;96098.00;4986529;28;20161;-70
2023/05/13 02:29:13;;;;;;;3.60;3.03;;;;;;;10.45;75.47;96100.34;4987844;28;20169;-70
2023/05/13 02:31:40;;;;;;;5.07;3.97;;;;;;;10.47;75.05;96088.84;4981274;28;20280;-69
2023/05/13 02:34:05;;;;;;;4.43;2.80;;;;;;;10.38;75.31;96092.75;4989178;28;20188;-69
2023/05/13 02:36:30;;;;;;;3.33;3.03;;;;;;;10.49;75.30;96094.03;4986571;28;20448;-70
2023/05/13 02:38:56;;;;;;;3.23;2.93;;;;;;;10.54;74.82;96095.47;4988648;28;20174;-69
2023/05/13 02:41:21;;;;;;;3.30;3.10;;;;;;;10.42;75.49;96100.47;4979314;28;20225;-70
2023/05/13 02:43:47;;;;;;;3.50;3.20;;;;;;;10.64;74.82;96093.25;4979882;28;20201;-70
2023/05/13 02:46:12;;;;;;;3.60;3.30;;;;;;;10.67;74.43;96093.09;4976819;28;20224;-70
2023/05/13 02:48:37;;;;;;;3.03;2.73;;;;;;;10.55;74.48;96089.31;4971387;28;20264;-69
2023/05/13 02:51:03;;;;;;;4.10;3.37;;;;;;;10.57;74.55;96097.09;4971588;28;20184;-70
2023/05/13 02:53:28;;;;;;;3.40;3.10;;;;;;;10.31;75.40;96090.50;4971949;28;20280;-69
2023/05/13 02:55:54;;;;;;;3.37;3.07;;;;;;;10.48;75.09;96094.94;4971176;28;20205;-70
2023/05/13 02:58:19;;;;;;;4.37;3.60;;;;;;;10.31;75.78;96093.13;4969918;28;20595;-69
2023/05/13 03:00:45;;;;;;;4.73;3.13;;;;;;;10.24;75.95;96092.53;4971190;28;20176;-70
2023/05/13 03:03:10;;;;;;;10.60;3.37;;;;;;;10.28;75.81;96091.50;4971384;28;20193;-70
2023/05/13 03:05:36;;;;;;;6.50;3.07;;;;;;;10.40;75.39;96091.84;4971083;28;20165;-69
2023/05/13 03:08:01;;;;;;;3.70;3.30;;;;;;;10.40;75.25;96094.47;4970988;28;20181;-69
2023/05/13 03:10:27;;;;;;;3.50;3.20;;;;;;;10.47;74.72;96093.25;4970916;28;20205;-69
2023/05/13 03:12:52;;;;;;;3.57;3.27;;;;;;;10.46;74.68;96083.66;4970767;28;20202;-69
2023/05/13 03:15:18;;;;;;;3.70;3.27;;;;;;;10.20;75.57;96090.13;4969369;28;20205;-70
2023/05/13 03:17:43;;;;;;;3.97;3.57;;;;;;;10.35;75.54;96100.78;4971311;28;20204;-70
2023/05/13 03:20:10;;;;;;;3.77;3.47;;;;;;;10.20;75.39;96090.97;4965875;28;20182;-69
2023/05/13 03:22:37;;;;;;;3.60;3.30;;;;;;;10.34;74.82;96093.81;4967392;28;20335;-69
2023/05/13 03:25:04;;;;;;;4.27;3.03;;;;;;;10.43;74.95;96097.78;4968234;28;20973;-70
2023/05/13 03:27:29;;;;;;;4.27;3.40;;;;;;;10.43;74.69;96097.78;4970224;28;20436;-70
2023/05/13 03:29:55;;;;;;;3.90;3.50;;;;;;;10.54;74.41;96097.25;4970430;28;20523;-69
2023/05/13 03:32:21;;;;;;;9.87;3.87;;;;;;;10.45;74.35;96095.09;4970767;28;20270;-70
2023/05/13 03:34:47;;;;;;;4.80;3.30;;;;;;;10.42;74.71;96101.34;4970741;28;20170;-70
2023/05/13 03:37:12;;;;;;;5.70;3.40;;;;;;;10.33;74.72;96105.22;4970467;28;20512;-70
2023/05/13 03:39:38;;;;;;;3.80;3.50;;;;;;;10.44;74.88;96103.84;4970150;28;20264;-69
2023/05/13 03:42:03;;;;;;;3.40;3.07;;;;;;;10.30;74.92;96102.75;4970902;28;20368;-69
2023/05/13 03:44:29;;;;;;;4.07;3.73;;;;;;;10.20;76.03;96101.44;4970769;28;20552;-69
2023/05/13 03:46:54;;;;;;;3.70;3.40;;;;;;;10.14;75.59;96101.75;4970503;28;20181;-70
2023/05/13 03:49:20;;;;;;;4.03;3.17;;;;;;;10.36;74.87;96097.22;4970787;28;20273;-70
2023/05/13 03:51:45;;;;;;;4.20;3.13;;;;;;;10.25;75.54;96096.88;4970600;28;20193;-70
2023/05/13 03:54:10;;;;;;;4.27;3.77;;;;;;;10.32;75.12;96100.06;4970361;28;20180;-69
2023/05/13 03:56:36;;;;;;;4.90;3.00;;;;;;;10.35;74.88;96106.00;4970008;28;20259;-69
2023/05/13 03:59:01;;;;;;;3.87;3.47;;;;;;;10.55;73.90;96101.56;4970520;28;20174;-69
2023/05/13 04:01:27;;;;;;;4.70;4.07;;;;;;;10.35;74.53;96110.41;4970187;28;20169;-69
2023/05/13 04:03:52;;;;;;;4.77;4.27;;;;;;;10.47;74.37;96114.22;4970568;28;20173;-69
2023/05/13 04:06:18;;;;;;;4.00;3.60;;;;;;;10.33;74.70;96120.13;4970386;28;20504;-70
2023/05/13 04:08:43;;;;;;;3.50;3.20;;;;;;;10.38;74.53;96115.50;4970608;28;20834;-69
2023/05/13 04:11:09;;;;;;;3.73;3.40;;;;;;;10.29;75.01;96122.03;4970769;28;20181;-69
2023/05/13 04:13:35;;;;;;;4.47;3.40;;;;;;;10.24;75.06;96121.38;4969670;28;20220;-71
2023/05/13 04:16:01;;;;;;;4.00;3.70;;;;;;;10.27;74.76;96118.59;4970615;28;20212;-70
2023/05/13 04:18:29;;;;;;;4.67;3.40;;;;;;;10.28;75.22;96117.72;4971117;28;20699;-69
2023/05/13 04:20:55;;;;;;;4.50;4.10;;;;;;;10.29;74.91;96129.06;4970339;28;20448;-69
2023/05/13 04:23:20;;;;;;;4.13;3.50;;;;;;;10.28;74.66;96112.47;4970709;28;20826;-70
2023/05/13 04:25:51;;;;;;;5.17;4.67;;;;;;;10.30;74.90;96123.75;4966689;28;20174;-69
2023/05/13 04:28:17;;;;;;;4.10;3.70;;;;;;;10.33;74.81;96128.00;4956916;28;20250;-69
2023/05/13 04:30:42;;;;;;;4.30;3.90;;;;;;;10.21;75.40;96121.53;4965256;28;20445;-69
2023/05/13 04:33:08;;;;;;;4.10;3.70;;;;;;;10.31;74.97;96127.22;4969480;28;20579;-69
2023/05/13 04:35:33;;;;;;;4.20;3.80;;;;;;;10.24;75.36;96138.88;4969823;28;20220;-69
2023/05/13 04:37:58;;;;;;;4.97;3.87;;;;;;;10.11;75.35;96133.34;4970004;28;20186;-68
2023/05/13 04:40:25;;;;;;;5.87;4.77;;;;;;;10.01;76.20;96127.66;4968170;28;20197;-69
2023/05/13 04:42:53;;;;;;;5.07;4.63;;;;;;;10.07;75.82;96144.91;4968562;28;20193;-70
2023/05/13 04:45:19;;;;;;;5.10;4.60;;;;;;;9.94;76.10;96142.84;4968554;28;20528;-70
2023/05/13 04:47:45;;;;;;;5.00;4.53;;;;;;;10.05;75.75;96144.13;4968174;28;20838;-69
2023/05/13 04:50:10;;;;;;;4.93;4.53;;;;;;;10.02;76.21;96149.53;4968524;28;20545;-68
2023/05/13 04:52:36;;;;;;;7.07;4.20;;;;;;;10.11;75.26;96149.94;4968428;28;20201;-68
2023/05/13 04:55:02;;;;;;;5.83;4.73;;;;;;;9.99;75.73;96147.88;4968021;28;20198;-70
2023/05/13 04:57:27;;;;;;;6.60;5.20;;;;;;;10.16;74.97;96157.59;4968201;28;20182;-70
2023/05/13 04:59:53;;;;;;;7.03;5.53;;;;;;;9.97;75.85;96152.34;4968505;28;20981;-70
2023/05/13 05:02:18;;;;;;;5.67;5.07;;;;;;;9.97;76.00;96152.34;4968619;28;20197;-70
2023/05/13 05:04:43;;;;;;;5.50;5.00;;;;;;;10.08;76.19;96159.72;4968695;28;20181;-69
2023/05/13 05:07:09;;;;;;;6.33;5.53;;;;;;;10.10;75.36;96166.59;4968237;28;20178;-68
2023/05/13 05:09:34;;;;;;;6.50;5.90;;;;;;;9.88;76.38;96163.25;4966959;28;20241;-71
2023/05/13 05:12:00;;;;;;;7.17;4.77;;;;;;;10.50;82.02;96158.66;4968881;28;20483;-71
2023/05/13 05:14:25;;;;;;;6.17;5.57;;;;;;;10.13;75.18;96168.22;4968764;28;20485;-72
2023/05/13 05:16:51;;;;;;;7.10;5.57;;;;;;;9.94;76.46;96153.34;4968521;28;20205;-72
2023/05/13 05:19:16;;;;;;;5.87;5.27;;;;;;;9.92;76.43;96157.81;4968755;28;20174;-71
2023/05/13 05:21:42;;;;;;;10.33;5.90;;;;;;;10.11;75.93;96160.44;4968866;28;20169;-70
2023/05/13 05:24:07;;;;;;;6.13;5.43;;;;;;;10.13;75.82;96168.22;4968531;28;20240;-69
2023/05/13 05:26:33;;;;;;;6.00;4.97;;;;;;;10.23;75.47;96156.41;4969996;28;20559;-70
2023/05/13 05:28:58;;;;;;;8.47;5.50;;;;;;;10.16;75.37;96171.56;4978873;28;20177;-69
2023/05/13 05:31:25;;;;;;;9.07;6.20;;;;;;;10.36;75.23;96170.66;4969607;28;20186;-70
2023/05/13 05:33:51;;;;;;;7.57;5.90;;;;;;;10.33;74.88;96165.56;4964484;28;20657;-71
2023/05/13 05:36:17;;;;;;;8.33;7.60;;;;;;;10.12;75.86;96170.00;4962592;28;20463;-69
2023/05/13 05:38:42;;;;;;;8.10;6.77;;;;;;;10.16;75.91;96176.81;4971331;28;20186;-71
2023/05/13 05:41:07;;;;;;;8.73;7.30;;;;;;;10.15;75.76;96179.47;4974914;28;20193;-70
2023/05/13 05:43:34;;;;;;;7.73;6.33;;;;;;;9.99;76.48;96181.09;4978313;28;20244;-71
2023/05/13 05:46:00;;;;;;;8.40;7.70;;;;;;;10.17;76.20;96180.25;4990522;28;20416;-71
2023/05/13 05:48:25;;;;;;;8.37;7.13;;;;;;;10.22;75.74;96183.53;4971421;28;20324;-71
2023/05/13 05:50:51;;;;;;;9.30;7.40;;;;;;;10.18;75.91;96185.47;4977854;28;20268;-71
2023/05/13 05:53:16;;;;;;;13.67;6.03;;;;;;;10.19;75.63;96181.06;4972138;28;20198;-70
2023/05/13 05:55:41;;;;;;;8.70;7.80;;;;;;;10.29;75.55;96179.72;4970942;28;20213;-70
2023/05/13 05:58:09;;;;;;;10.90;8.43;;;;;;;10.23;75.66;96185.25;4969341;28;20341;-71
2023/05/13 06:00:34;;;;;;;8.30;6.87;;;;;;;10.32;75.27;96187.47;4968288;28;20229;-71
2023/05/13 06:02:59;;;;;;;7.67;6.80;;;;;;;10.25;75.32;96190.41;4963365;28;20888;-71
2023/05/13 06:05:25;;;;;;;8.27;6.20;;;;;;;10.35;74.84;96195.19;4966545;28;20662;-72
2023/05/13 06:07:50;;;;;;;6.63;5.90;;;;;;;10.32;74.67;96191.84;4964097;28;20181;-70
2023/05/13 06:10:16;;;;;;;6.20;5.60;;;;;;;10.32;74.91;96199.72;4976600;28;20237;-71
2023/05/13 06:12:41;;;;;;;6.63;5.23;;;;;;;10.24;74.87;96191.34;4968428;28;20608;-69
2023/05/13 06:15:09;;;;;;;8.90;5.60;;;;;;;10.16;75.09;96189.06;4957886;28;20561;-71
2023/05/13 06:17:38;;;;;;;6.03;5.37;;;;;;;10.16;75.00;96197.78;4959578;28;20236;-70
2023/05/13 06:20:04;;;;;;;5.60;5.10;;;;;;;10.15;75.00;96197.84;4966634;28;20523;-71
2023/05/13 06:22:30;;;;;;;6.43;5.73;;;;;;;10.26;74.69;96198.22;4958705;28;20465;-70
2023/05/13 06:24:56;;;;;;;16.47;5.53;;;;;;;10.18;74.56;96195.94;4955152;28;21019;-71
2023/05/13 06:27:21;;;;;;;6.70;5.07;;;;;;;10.33;73.89;96199.66;4962961;28;20273;-72
2023/05/13 06:29:47;;;;;;;9.17;5.67;;;;;;;10.26;74.49;96194.75;4960262;28;20186;-69
2023/05/13 06:32:13;;;;;;;6.80;6.00;;;;;;;10.15;75.20;96193.44;4965356;28;20225;-69
2023/05/13 06:34:44;;;;;;;7.37;6.67;;;;;;;10.16;74.88;96203.03;4964408;28;20640;-69
2023/05/13 06:37:10;;;;;;;8.30;7.50;;;;;;;10.15;74.85;96189.97;4965689;28;20185;-73
2023/05/13 06:39:36;;;;;;;8.60;6.60;;;;;;;10.11;74.78;96197.16;4952385;28;20496;-71
2023/05/13 06:42:03;;;;;;;7.93;5.57;;;;;;;10.10;74.61;96197.19;4956280;28;20457;-70
2023/05/13 06:44:28;;;;;;;8.10;7.30;;;;;;;9.99;75.20;96196.81;4961330;28;20441;-72
2023/05/13 06:46:54;;;;;;;9.97;7.50;;;;;;;10.01;75.35;96185.34;4959390;28;20436;-72
2023/05/13 06:49:20;;;;;;;8.77;7.87;;;;;;;10.11;74.90;96193.66;4966758;28;20233;-70
2023/05/13 06:51:45;;;;;;;8.27;7.47;;;;;;;10.31;74.17;96204.13;4967075;28;20213;-70
2023/05/13 06:54:11;;;;;;;7.23;5.83;;;;;;;10.34;74.04;96193.47;4952892;28;20449;-71
2023/05/13 06:56:36;;;;;;;8.27;7.47;;;;;;;10.13;75.03;96192.69;4963032;28;20221;-71
2023/05/13 06:59:02;;;;;;;8.57;7.23;;;;;;;10.33;74.87;96191.78;4962456;28;20193;-72
2023/05/13 07:01:27;;;;;;;8.63;6.73;;;;;;;10.45;74.52;96202.66;4958643;28;20255;-71
2023/05/13 07:03:52;;;;;;;9.13;7.80;;;;;;;10.40;74.61;96200.22;4963219;28;20177;-68
2023/05/13 07:06:18;;;;;;;11.50;7.50;;;;;;;10.26;74.84;96195.59;4978943;28;20161;-71
2023/05/13 07:08:43;;;;;;;13.13;8.80;;;;;;;10.43;73.96;96205.31;4972349;28;20252;-72
2023/05/13 07:11:09;;;;;;;9.03;8.13;;;;;;;10.47;74.18;96195.56;4969720;28;20170;-70
2023/05/13 07:13:34;;;;;;;10.10;9.07;;;;;;;10.41;74.25;96211.56;4969969;28;20194;-70
2023/05/13 07:16:01;;;;;;;8.90;8.00;;;;;;;10.34;75.11;96206.59;4970708;28;20567;-70
2023/05/13 07:18:27;;;;;;;10.07;9.07;;;;;;;10.35;74.78;96210.09;4967215;28;20268;-71
2023/05/13 07:20:53;;;;;;;8.97;8.03;;;;;;;10.15;75.78;96206.56;4965528;28;20451;-69
2023/05/13 07:23:18;;;;;;;13.03;8.37;;;;;;;10.20;75.39;96200.25;4971610;28;20465;-71
2023/05/13 07:25:44;;;;;;;9.37;7.40;;;;;;;10.18;75.02;96203.81;4969003;28;20193;-70
2023/05/13 07:28:09;;;;;;;9.27;8.40;;;;;;;10.09;75.21;96201.59;4963622;28;20190;-68
2023/05/13 07:30:35;;;;;;;8.33;7.53;;;;;;;9.94;75.97;96207.50;4964579;28;20182;-70
2023/05/13 07:33:00;;;;;;;12.90;8.87;;;;;;;9.90;75.31;96212.06;4962982;28;20202;-72
2023/05/13 07:35:26;;;;;;;7.30;6.60;;;;;;;10.02;75.42;96213.28;4969519;28;20209;-69
2023/05/13 07:37:51;;;;;;;10.73;8.90;;;;;;;10.02;75.65;96202.81;4985507;28;20183;-73
2023/05/13 07:40:18;;;;;;;8.87;8.00;;;;;;;10.04;75.17;96208.81;5003646;28;20188;-71
2023/05/13 07:42:44;;;;;;;14.97;9.63;;;;;;;9.99;75.75;96208.16;4987636;28;20218;-68
2023/05/13 07:45:10;;;;;;;17.97;9.07;;;;;;;10.06;75.54;96208.75;4985976;28;20435;-71
2023/05/13 07:47:35;;;;;;;11.40;8.93;;;;;;;10.09;75.19;96212.09;4975231;28;20215;-71
2023/05/13 07:50:01;;;;;;;10.33;8.90;;;;;;;10.14;75.08;96211.88;4970861;28;20177;-70
2023/05/13 07:52:26;;;;;;;12.63;9.60;;;;;;;10.16;75.52;96213.50;4968882;28;20193;-70
2023/05/13 07:54:52;;;;;;;24.23;10.60;;;;;;;10.31;74.55;96219.84;4975525;28;20208;-71
2023/05/13 07:57:18;;;;;;;14.50;11.30;;;;;;;10.31;75.19;96213.75;4980510;28;20177;-69
2023/05/13 07:59:43;;;;;;;12.30;9.83;;;;;;;10.79;75.33;96221.13;4981321;28;20265;-70
2023/05/13 08:02:09;;;;;;;11.07;7.90;;;;;;;10.78;73.57;96223.81;4990765;28;20227;-69
2023/05/13 08:04:35;;;;;;;14.60;9.17;;;;;;;11.94;77.17;96213.72;4976551;28;20205;-73
2023/05/13 08:07:00;;;;;;;9.53;8.23;;;;;;;10.99;72.08;96220.16;4985308;28;20423;-70
2023/05/13 08:09:26;;;;;;;11.37;9.03;;;;;;;10.90;80.98;96220.59;4987481;28;20196;-69
2023/05/13 08:11:53;;;;;;;10.47;9.40;;;;;;;10.72;74.09;96224.09;4988162;28;20188;-70
2023/05/13 08:14:20;;;;;;;10.20;9.20;;;;;;;10.85;74.19;96221.75;4994726;28;20408;-71
2023/05/13 08:16:45;;;;;;;9.27;8.37;;;;;;;10.89;73.17;96225.91;4978737;28;20533;-69
2023/05/13 08:19:13;;;;;;;15.60;9.20;;;;;;;10.72;73.67;96213.59;4981937;28;20416;-69
2023/05/13 08:21:39;;;;;;;8.83;7.93;;;;;;;10.71;73.06;96228.50;4976624;28;20193;-69
2023/05/13 08:24:05;;;;;;;10.10;8.03;;;;;;;10.43;74.56;96225.47;4968093;28;20440;-70
2023/05/13 08:26:31;;;;;;;9.27;8.37;;;;;;;10.48;74.70;96233.97;4964060;28;20178;-69
2023/05/13 08:28:56;;;;;;;10.10;7.80;;;;;;;10.49;74.42;96223.41;4960152;28;20453;-70
2023/05/13 08:31:24;;;;;;;8.87;8.00;;;;;;;10.54;74.91;96231.06;4957806;28;20276;-69
2023/05/13 08:33:50;;;;;;;8.47;7.67;;;;;;;10.48;74.26;96231.34;4963411;28;20657;-69
2023/05/13 08:36:16;;;;;;;9.20;8.40;;;;;;;10.42;74.58;96229.00;4964495;28;20478;-67
2023/05/13 08:38:42;;;;;;;9.30;8.47;;;;;;;10.59;74.84;96232.56;4964418;28;20445;-66
2023/05/13 08:41:11;;;;;;;8.40;7.60;;;;;;;10.49;74.92;96228.66;4960384;28;20263;-67
2023/05/13 08:43:38;;;;;;;16.00;9.00;;;;;;;10.37;75.46;96237.94;4966815;28;20532;-68
2023/05/13 08:46:08;;;;;;;8.67;7.87;;;;;;;10.48;75.20;96236.59;4968884;28;20413;-68
2023/05/13 08:48:34;;;;;;;9.70;8.67;;;;;;;10.58;74.69;96243.97;4968975;28;20508;-68
2023/05/13 08:51:01;;;;;;;8.30;7.60;;;;;;;10.50;74.70;96238.22;4965530;28;20977;-69
2023/05/13 08:53:27;;;;;;;9.77;8.37;;;;;;;10.68;74.60;96241.78;4980217;28;20591;-71
2023/05/13 08:55:53;;;;;;;7.37;6.77;;;;;;;10.65;74.29;96241.91;4969106;28;20493;-70
2023/05/13 08:58:19;;;;;;;7.60;6.90;;;;;;;10.55;74.75;96238.00;4967462;28;20527;-73
2023/05/13 09:00:44;;;;;;;8.60;7.80;;;;;;;10.44;75.02;96233.28;4970001;28;20181;-69
2023/05/13 09:03:11;;;;;;;9.70;8.80;;;;;;;10.40;74.86;96243.97;4972072;28;20542;-70
2023/05/13 09:05:37;;;;;;;10.47;9.47;;;;;;;10.36;74.91;96248.50;4970615;28;20177;-68
2023/05/13 09:08:07;;;;;;;11.07;9.40;;;;;;;10.23;75.47;96255.19;4978505;28;20444;-68
2023/05/13 09:10:33;;;;;;;10.70;9.63;;;;;;;10.30;75.13;96249.63;4972116;28;20415;-71
2023/05/13 09:13:00;;;;;;;14.20;10.20;;;;;;;10.33;74.72;96246.88;4973867;28;20524;-68
2023/05/13 09:15:27;;;;;;;15.10;10.27;;;;;;;10.48;74.72;96253.19;4970734;28;20216;-68
2023/05/13 09:17:55;;;;;;;11.27;9.90;;;;;;;10.26;75.43;96248.03;4969069;28;21208;-69
2023/05/13 09:20:24;;;;;;;10.63;9.47;;;;;;;10.36;75.69;96256.38;4967673;28;20445;-70
2023/05/13 09:22:52;;;;;;;10.60;9.60;;;;;;;10.26;74.94;96257.69;4967225;28;20459;-69
2023/05/13 09:25:19;;;;;;;12.13;10.83;;;;;;;10.31;75.46;96248.72;4993157;28;20444;-71
2023/05/13 09:27:47;;;;;;;12.17;9.90;;;;;;;10.31;75.52;96256.56;4964362;28;20539;-69
2023/05/13 09:30:13;;;;;;;10.67;9.67;;;;;;;10.30;75.83;96251.38;4960453;28;20477;-69
2023/05/13 09:32:41;;;;;;;18.10;10.63;;;;;;;10.42;75.35;96250.84;4975030;28;20554;-69
2023/05/13 09:35:10;;;;;;;14.87;11.43;;;;;;;10.57;75.02;96249.28;5019799;28;20446;-72
2023/05/13 09:37:36;;;;;;;9.87;8.83;;;;;;;10.49;74.72;96244.41;4989000;28;20439;-70
2023/05/13 09:40:02;;;;;;;10.77;9.77;;;;;;;10.41;75.84;96245.66;4987244;28;20452;-68
2023/05/13 09:42:28;;;;;;;12.13;9.97;;;;;;;10.51;74.98;96241.69;4989382;28;20462;-70
2023/05/13 09:44:54;;;;;;;10.07;9.07;;;;;;;10.57;74.52;96249.28;5008223;28;20415;-68
2023/05/13 09:47:20;;;;;;;12.07;9.77;;;;;;;10.60;74.46;96252.59;5013106;28;20176;-70
2023/05/13 09:49:58;;;;;;;10.33;9.27;;;;;;;10.57;75.07;96254.53;5012735;28;20432;-70
2023/05/13 09:52:23;;;;;;;10.90;9.80;;;;;;;10.64;74.90;96253.34;4999980;28;20201;-70
2023/05/13 09:54:48;;;;;;;18.23;10.57;;;;;;;10.82;74.31;96264.75;4999283;28;20451;-70
2023/05/13 09:57:14;;;;;;;13.27;10.40;;;;;;;10.90;73.80;96257.34;4988051;28;20260;-71
2023/05/13 09:59:40;;;;;;;14.77;10.07;;;;;;;10.89;73.73;96267.91;4989508;28;20612;-70
2023/05/13 10:02:07;;;;;;;10.43;9.40;;;;;;;10.93;73.94;96267.69;4990100;28;20208;-71
2023/05/13 10:04:32;;;;;;;9.90;9.00;;;;;;;10.88;73.80;96264.44;4986759;28;20189;-71
2023/05/13 10:07:00;;;;;;;10.87;9.97;;;;;;;10.80;73.84;96272.69;4977197;28;20443;-69
2023/05/13 10:09:29;;;;;;;10.13;9.23;;;;;;;10.84;73.45;96267.28;4982037;28;20239;-68
2023/05/13 10:11:55;;;;;;;10.77;9.77;;;;;;;10.87;73.84;96275.88;4975929;28;20464;-72
2023/05/13 10:14:21;;;;;;;15.73;11.57;;;;;;;10.81;74.20;96277.00;4980627;28;20839;-69
2023/05/13 10:16:48;;;;;;;11.90;9.80;;;;;;;10.75;74.05;96269.44;4977910;28;20578;-69
2023/05/13 10:19:13;;;;;;;11.57;10.50;;;;;;;10.73;74.53;96267.81;4975248;28;20424;-71
2023/05/13 10:21:40;;;;;;;10.73;9.73;;;;;;;10.85;74.17;96266.38;4982137;28;20786;-71
2023/05/13 10:24:06;;;;;;;8.97;8.07;;;;;;;10.79;74.65;96271.00;4988769;28;20175;-70
2023/05/13 10:26:33;;;;;;;9.90;8.90;;;;;;;10.97;73.86;96268.41;4990807;28;20409;-71
2023/05/13 10:28:59;;;;;;;12.10;9.63;;;;;;;11.09;73.76;96270.47;4988653;28;20424;-70
2023/05/13 10:31:26;;;;;;;8.87;8.07;;;;;;;10.95;73.72;96268.47;5015254;28;20803;-69
2023/05/13 10:33:52;;;;;;;10.10;8.83;;;;;;;10.97;73.36;96264.00;4987563;28;20920;-71
2023/05/13 10:36:21;;;;;;;17.23;9.73;;;;;;;11.16;73.36;96271.88;4987341;28;20464;-70
2023/05/13 10:38:58;;;;;;;9.90;8.90;;;;;;;11.06;73.92;96272.41;4985103;28;20436;-70
2023/05/13 10:41:29;;;;;;;10.87;9.97;;;;;;;11.05;73.30;96273.31;4977420;28;20513;-70
2023/05/13 10:43:58;;;;;;;10.03;9.23;;;;;;;10.93;73.72;96266.84;4984924;28;20488;-70
2023/05/13 10:46:24;;;;;;;11.47;10.40;;;;;;;10.92;74.28;96278.28;4977851;28;20957;-71
2023/05/13 10:48:57;;;;;;;14.53;10.40;;;;;;;10.79;74.32;96276.25;4986086;28;20531;-69
2023/05/13 10:51:24;;;;;;;11.13;10.13;;;;;;;10.83;74.30;96273.47;4973088;28;20708;-71
2023/05/13 10:53:50;;;;;;;16.70;10.17;;;;;;;10.73;74.25;96273.91;4982277;28;20997;-69
2023/05/13 10:56:24;;;;;;;11.33;10.23;;;;;;;10.67;74.24;96274.19;4981877;28;20463;-69
2023/05/13 10:59:03;;;;;;;11.73;10.63;;;;;;;10.47;75.80;96280.34;4989187;28;20495;-71
2023/05/13 11:01:42;;;;;;;14.57;10.40;;;;;;;10.47;76.36;96282.13;4983229;28;20519;-70
2023/05/13 11:04:13;;;;;;;10.63;9.57;;;;;;;10.69;75.59;96277.59;4989876;28;20447;-70
2023/05/13 11:06:41;;;;;;;24.77;11.00;;;;;;;10.77;75.26;96275.47;4986781;28;20452;-71
2023/05/13 11:09:30;;;;;;;23.30;10.63;;;;;;;10.89;75.14;96281.03;4988524;28;20424;-73
2023/05/13 11:11:58;;;;;;;10.00;8.47;;;;;;;10.90;74.74;96283.59;4987751;28;20459;-72
2023/05/13 11:14:29;;;;;;;9.73;8.90;;;;;;;10.93;74.55;96288.72;4985826;28;20425;-71
2023/05/13 11:17:00;;;;;;;11.20;10.00;;;;;;;10.91;74.57;96284.44;4985596;28;20472;-71
2023/05/13 11:19:31;;;;;;;10.40;9.40;;;;;;;10.92;75.10;96283.56;4987340;28;20570;-71
2023/05/13 11:22:04;;;;;;;12.83;10.03;;;;;;;10.93;74.17;96288.72;4988486;28;20435;-71
2023/05/13 11:24:29;;;;;;;10.47;9.57;;;;;;;10.89;73.96;96295.03;4989879;28;20487;-70
2023/05/13 11:26:57;;;;;;;12.40;10.27;;;;;;;10.86;74.79;96289.06;4989101;28;20404;-73
2023/05/13 11:29:28;;;;;;;11.57;9.60;;;;;;;11.10;74.39;96287.94;4991535;28;20613;-73